sensor_id;sensor_type;location;lat;lon;timestamp;pressure;altitude;pressure_sealevel;temperature
69435;BMP180;56625;54.322;18.582;2022-08-27T00:02:16;100685.60;;;20.60
69435;BMP180;56625;54.322;18.582;2022-08-27T00:04:45;100681.40;;;20.60
69435;BMP180;56625;54.322;18.582;2022-08-27T00:07:13;100678.40;;;20.60
69435;BMP180;56625;54.322;18.582;2022-08-27T00:09:41;100678.00;;;20.50
69435;BMP180;56625;54.322;18.582;2022-08-27T00:12:10;100672.40;;;20.40
69435;BMP180;56625;54.322;18.582;2022-08-27T00:14:38;100676.00;;;20.30
69435;BMP180;56625;54.322;18.582;2022-08-27T00:17:06;100674.40;;;20.30
69435;BMP180;56625;54.322;18.582;2022-08-27T00:19:35;100671.20;;;20.30
69435;BMP180;56625;54.322;18.582;2022-08-27T00:22:05;100666.60;;;20.40
69435;BMP180;56625;54.322;18.582;2022-08-27T00:24:35;100665.80;;;20.30
69435;BMP180;56625;54.322;18.582;2022-08-27T00:27:16;100659.00;;;20.20
69435;BMP180;56625;54.322;18.582;2022-08-27T00:29:46;100657.80;;;20.20
69435;BMP180;56625;54.322;18.582;2022-08-27T00:32:15;100663.00;;;20.10
69435;BMP180;56625;54.322;18.582;2022-08-27T00:34:44;100657.60;;;20.10
69435;BMP180;56625;54.322;18.582;2022-08-27T00:37:12;100666.20;;;20.12
69435;BMP180;56625;54.322;18.582;2022-08-27T00:39:40;100662.00;;;20.20
69435;BMP180;56625;54.322;18.582;2022-08-27T00:42:09;100662.00;;;20.20
69435;BMP180;56625;54.322;18.582;2022-08-27T00:44:36;100661.80;;;20.22
69435;BMP180;56625;54.322;18.582;2022-08-27T00:47:13;100657.60;;;20.28
69435;BMP180;56625;54.322;18.582;2022-08-27T00:49:48;100657.00;;;20.30
69435;BMP180;56625;54.322;18.582;2022-08-27T00:55:13;100660.00;;;20.10
69435;BMP180;56625;54.322;18.582;2022-08-27T00:57:42;100657.20;;;20.00
69435;BMP180;56625;54.322;18.582;2022-08-27T01:00:17;100658.20;;;20.00
69435;BMP180;56625;54.322;18.582;2022-08-27T01:02:45;100659.80;;;20.00
69435;BMP180;56625;54.322;18.582;2022-08-27T01:05:19;100658.80;;;20.00
69435;BMP180;56625;54.322;18.582;2022-08-27T01:07:53;100654.00;;;20.00
69435;BMP180;56625;54.322;18.582;2022-08-27T01:10:25;100656.00;;;20.00
69435;BMP180;56625;54.322;18.582;2022-08-27T01:12:55;100651.00;;;20.00
69435;BMP180;56625;54.322;18.582;2022-08-27T01:15:27;100651.40;;;19.90
69435;BMP180;56625;54.322;18.582;2022-08-27T01:17:56;100653.20;;;19.80
69435;BMP180;56625;54.322;18.582;2022-08-27T01:26:02;100645.20;;;19.90
69435;BMP180;56625;54.322;18.582;2022-08-27T01:28:35;100648.20;;;19.86
69435;BMP180;56625;54.322;18.582;2022-08-27T01:31:06;100639.60;;;19.80
69435;BMP180;56625;54.322;18.582;2022-08-27T01:33:35;100646.20;;;19.72
69435;BMP180;56625;54.322;18.582;2022-08-27T01:36:05;100643.80;;;19.60
69435;BMP180;56625;54.322;18.582;2022-08-27T01:38:33;100645.40;;;19.60
69435;BMP180;56625;54.322;18.582;2022-08-27T01:41:03;100646.60;;;19.60
69435;BMP180;56625;54.322;18.582;2022-08-27T01:43:30;100646.60;;;19.56
69435;BMP180;56625;54.322;18.582;2022-08-27T01:45:59;100647.80;;;19.50
69435;BMP180;56625;54.322;18.582;2022-08-27T01:48:27;100645.00;;;19.58
69435;BMP180;56625;54.322;18.582;2022-08-27T01:50:55;100644.60;;;19.60
69435;BMP180;56625;54.322;18.582;2022-08-27T01:53:26;100649.00;;;19.70
69435;BMP180;56625;54.322;18.582;2022-08-27T01:55:55;100643.40;;;19.70
69435;BMP180;56625;54.322;18.582;2022-08-27T01:58:27;100643.80;;;19.70
69435;BMP180;56625;54.322;18.582;2022-08-27T02:01:02;100645.20;;;19.70
69435;BMP180;56625;54.322;18.582;2022-08-27T02:03:31;100639.80;;;19.60
69435;BMP180;56625;54.322;18.582;2022-08-27T02:06:06;100639.20;;;19.60
69435;BMP180;56625;54.322;18.582;2022-08-27T02:08:34;100646.40;;;19.50
69435;BMP180;56625;54.322;18.582;2022-08-27T02:11:03;100650.00;;;19.40
69435;BMP180;56625;54.322;18.582;2022-08-27T02:13:31;100646.60;;;19.40
69435;BMP180;56625;54.322;18.582;2022-08-27T02:15:59;100647.00;;;19.30
69435;BMP180;56625;54.322;18.582;2022-08-27T02:18:28;100643.20;;;19.40
69435;BMP180;56625;54.322;18.582;2022-08-27T02:20:56;100637.40;;;19.48
69435;BMP180;56625;54.322;18.582;2022-08-27T02:23:23;100639.60;;;19.50
69435;BMP180;56625;54.322;18.582;2022-08-27T02:25:51;100639.80;;;19.50
69435;BMP180;56625;54.322;18.582;2022-08-27T02:28:19;100643.20;;;19.40
69435;BMP180;56625;54.322;18.582;2022-08-27T02:30:48;100648.60;;;19.30
69435;BMP180;56625;54.322;18.582;2022-08-27T02:33:16;100646.40;;;19.40
69435;BMP180;56625;54.322;18.582;2022-08-27T02:35:44;100642.40;;;19.40
69435;BMP180;56625;54.322;18.582;2022-08-27T02:38:12;100639.80;;;19.40
69435;BMP180;56625;54.322;18.582;2022-08-27T02:40:40;100641.40;;;19.40
69435;BMP180;56625;54.322;18.582;2022-08-27T02:43:08;100637.20;;;19.40
69435;BMP180;56625;54.322;18.582;2022-08-27T02:45:42;100637.20;;;19.30
69435;BMP180;56625;54.322;18.582;2022-08-27T02:48:10;100631.20;;;19.30
69435;BMP180;56625;54.322;18.582;2022-08-27T02:50:39;100635.60;;;19.32
69435;BMP180;56625;54.322;18.582;2022-08-27T02:53:06;100629.20;;;19.40
69435;BMP180;56625;54.322;18.582;2022-08-27T02:55:35;100632.60;;;19.40
69435;BMP180;56625;54.322;18.582;2022-08-27T02:58:03;100636.80;;;19.40
69435;BMP180;56625;54.322;18.582;2022-08-27T03:00:32;100639.80;;;19.30
69435;BMP180;56625;54.322;18.582;2022-08-27T03:03:00;100637.60;;;19.34
69435;BMP180;56625;54.322;18.582;2022-08-27T03:05:29;100631.00;;;19.40
69435;BMP180;56625;54.322;18.582;2022-08-27T03:07:56;100632.80;;;19.40
69435;BMP180;56625;54.322;18.582;2022-08-27T03:10:26;100634.40;;;19.32
69435;BMP180;56625;54.322;18.582;2022-08-27T03:12:55;100635.60;;;19.30
69435;BMP180;56625;54.322;18.582;2022-08-27T03:15:24;100629.20;;;19.30
69435;BMP180;56625;54.322;18.582;2022-08-27T03:17:52;100623.80;;;19.30
69435;BMP180;56625;54.322;18.582;2022-08-27T03:20:42;100622.60;;;19.20
69435;BMP180;56625;54.322;18.582;2022-08-27T03:23:12;100621.60;;;19.20
69435;BMP180;56625;54.322;18.582;2022-08-27T03:25:55;100620.20;;;19.10
69435;BMP180;56625;54.322;18.582;2022-08-27T03:28:29;100618.20;;;19.00
69435;BMP180;56625;54.322;18.582;2022-08-27T03:31:02;100618.40;;;19.00
69435;BMP180;56625;54.322;18.582;2022-08-27T03:33:36;100619.20;;;19.00
69435;BMP180;56625;54.322;18.582;2022-08-27T03:36:06;100619.00;;;19.00
69435;BMP180;56625;54.322;18.582;2022-08-27T03:38:35;100619.20;;;19.00
69435;BMP180;56625;54.322;18.582;2022-08-27T03:41:05;100616.60;;;18.90
69435;BMP180;56625;54.322;18.582;2022-08-27T03:43:33;100614.20;;;18.90
69435;BMP180;56625;54.322;18.582;2022-08-27T03:46:01;100613.00;;;18.90
69435;BMP180;56625;54.322;18.582;2022-08-27T03:48:31;100610.60;;;18.90
69435;BMP180;56625;54.322;18.582;2022-08-27T03:51:11;100614.40;;;18.90
69435;BMP180;56625;54.322;18.582;2022-08-27T03:53:42;100608.20;;;18.98
69435;BMP180;56625;54.322;18.582;2022-08-27T03:56:10;100609.60;;;18.90
69435;BMP180;56625;54.322;18.582;2022-08-27T03:58:39;100609.80;;;18.88
69435;BMP180;56625;54.322;18.582;2022-08-27T04:01:07;100617.20;;;18.80
69435;BMP180;56625;54.322;18.582;2022-08-27T04:03:36;100612.40;;;18.70
69435;BMP180;56625;54.322;18.582;2022-08-27T04:06:04;100620.00;;;18.60
69435;BMP180;56625;54.322;18.582;2022-08-27T04:08:32;100617.80;;;18.54
69435;BMP180;56625;54.322;18.582;2022-08-27T04:11:05;100616.60;;;18.50
69435;BMP180;56625;54.322;18.582;2022-08-27T04:13:33;100615.80;;;18.60
69435;BMP180;56625;54.322;18.582;2022-08-27T04:16:04;100611.80;;;18.70
69435;BMP180;56625;54.322;18.582;2022-08-27T04:18:32;100609.60;;;18.80
69435;BMP180;56625;54.322;18.582;2022-08-27T04:21:08;100605.40;;;18.90
69435;BMP180;56625;54.322;18.582;2022-08-27T04:23:40;100606.80;;;19.12
69435;BMP180;56625;54.322;18.582;2022-08-27T04:26:10;100610.40;;;19.40
69435;BMP180;56625;54.322;18.582;2022-08-27T04:28:38;100612.60;;;19.50
69435;BMP180;56625;54.322;18.582;2022-08-27T04:31:07;100615.40;;;19.50
69435;BMP180;56625;54.322;18.582;2022-08-27T04:33:44;100613.00;;;19.50
69435;BMP180;56625;54.322;18.582;2022-08-27T04:36:19;100610.60;;;19.60
69435;BMP180;56625;54.322;18.582;2022-08-27T04:38:47;100608.80;;;19.80
69435;BMP180;56625;54.322;18.582;2022-08-27T04:41:15;100612.00;;;20.10
69435;BMP180;56625;54.322;18.582;2022-08-27T04:44:02;100606.40;;;20.42
69435;BMP180;56625;54.322;18.582;2022-08-27T04:46:40;100604.00;;;20.80
69435;BMP180;56625;54.322;18.582;2022-08-27T04:49:16;100606.60;;;21.08
69435;BMP180;56625;54.322;18.582;2022-08-27T04:51:44;100602.80;;;21.28
69435;BMP180;56625;54.322;18.582;2022-08-27T04:54:15;100599.80;;;21.30
69435;BMP180;56625;54.322;18.582;2022-08-27T04:56:43;100598.80;;;21.30
69435;BMP180;56625;54.322;18.582;2022-08-27T04:59:11;100603.40;;;21.40
69435;BMP180;56625;54.322;18.582;2022-08-27T05:01:40;100599.60;;;21.68
69435;BMP180;56625;54.322;18.582;2022-08-27T05:04:13;100596.40;;;21.96
69435;BMP180;56625;54.322;18.582;2022-08-27T05:06:41;100599.20;;;22.12
69435;BMP180;56625;54.322;18.582;2022-08-27T05:09:14;100597.00;;;22.10
69435;BMP180;56625;54.322;18.582;2022-08-27T05:11:44;100598.40;;;22.10
69435;BMP180;56625;54.322;18.582;2022-08-27T05:14:15;100599.60;;;22.10
69435;BMP180;56625;54.322;18.582;2022-08-27T05:16:42;100602.20;;;22.10
69435;BMP180;56625;54.322;18.582;2022-08-27T05:19:11;100604.00;;;22.20
69435;BMP180;56625;54.322;18.582;2022-08-27T05:21:50;100603.80;;;22.32
69435;BMP180;56625;54.322;18.582;2022-08-27T05:24:20;100602.20;;;22.70
69435;BMP180;56625;54.322;18.582;2022-08-27T05:26:49;100602.40;;;23.10
69435;BMP180;56625;54.322;18.582;2022-08-27T05:29:18;100603.00;;;23.20
69435;BMP180;56625;54.322;18.582;2022-08-27T05:31:46;100600.40;;;23.46
69435;BMP180;56625;54.322;18.582;2022-08-27T05:34:14;100598.80;;;23.60
69435;BMP180;56625;54.322;18.582;2022-08-27T05:36:51;100599.20;;;23.70
69435;BMP180;56625;54.322;18.582;2022-08-27T05:39:19;100602.20;;;23.70
69435;BMP180;56625;54.322;18.582;2022-08-27T05:41:49;100599.80;;;23.60
69435;BMP180;56625;54.322;18.582;2022-08-27T05:44:20;100603.60;;;23.50
69435;BMP180;56625;54.322;18.582;2022-08-27T05:47:08;100599.20;;;23.50
69435;BMP180;56625;54.322;18.582;2022-08-27T05:49:36;100598.00;;;23.34
69435;BMP180;56625;54.322;18.582;2022-08-27T05:52:09;100600.60;;;23.30
69435;BMP180;56625;54.322;18.582;2022-08-27T05:54:38;100600.80;;;23.20
69435;BMP180;56625;54.322;18.582;2022-08-27T05:57:07;100600.80;;;23.10
69435;BMP180;56625;54.322;18.582;2022-08-27T05:59:35;100602.20;;;23.10
69435;BMP180;56625;54.322;18.582;2022-08-27T06:02:22;100601.60;;;23.10
69435;BMP180;56625;54.322;18.582;2022-08-27T06:04:50;100605.40;;;23.10
69435;BMP180;56625;54.322;18.582;2022-08-27T06:07:18;100606.00;;;23.30
69435;BMP180;56625;54.322;18.582;2022-08-27T06:09:46;100603.80;;;23.40
69435;BMP180;56625;54.322;18.582;2022-08-27T06:12:14;100603.20;;;23.50
69435;BMP180;56625;54.322;18.582;2022-08-27T06:14:42;100604.80;;;23.40
69435;BMP180;56625;54.322;18.582;2022-08-27T06:17:09;100607.80;;;23.50
69435;BMP180;56625;54.322;18.582;2022-08-27T06:19:37;100605.20;;;23.50
69435;BMP180;56625;54.322;18.582;2022-08-27T06:22:05;100603.00;;;23.58
69435;BMP180;56625;54.322;18.582;2022-08-27T06:24:40;100602.80;;;23.50
69435;BMP180;56625;54.322;18.582;2022-08-27T06:27:13;100601.60;;;23.50
69435;BMP180;56625;54.322;18.582;2022-08-27T06:29:43;100604.60;;;23.54
69435;BMP180;56625;54.322;18.582;2022-08-27T06:32:13;100609.20;;;23.66
69435;BMP180;56625;54.322;18.582;2022-08-27T06:34:41;100611.20;;;23.78
69435;BMP180;56625;54.322;18.582;2022-08-27T06:37:09;100609.00;;;23.90
69435;BMP180;56625;54.322;18.582;2022-08-27T06:39:37;100608.40;;;24.00
69435;BMP180;56625;54.322;18.582;2022-08-27T06:42:10;100604.40;;;24.10
69435;BMP180;56625;54.322;18.582;2022-08-27T06:44:40;100605.00;;;24.28
69435;BMP180;56625;54.322;18.582;2022-08-27T06:47:09;100604.60;;;24.40
69435;BMP180;56625;54.322;18.582;2022-08-27T06:49:39;100601.60;;;24.48
69435;BMP180;56625;54.322;18.582;2022-08-27T06:52:10;100607.40;;;24.52
69435;BMP180;56625;54.322;18.582;2022-08-27T06:54:38;100606.60;;;24.60
69435;BMP180;56625;54.322;18.582;2022-08-27T06:57:06;100608.20;;;24.80
69435;BMP180;56625;54.322;18.582;2022-08-27T06:59:34;100606.60;;;24.84
69435;BMP180;56625;54.322;18.582;2022-08-27T07:02:05;100604.60;;;24.96
69435;BMP180;56625;54.322;18.582;2022-08-27T07:04:34;100608.60;;;25.10
69435;BMP180;56625;54.322;18.582;2022-08-27T07:07:03;100606.20;;;25.20
69435;BMP180;56625;54.322;18.582;2022-08-27T07:09:33;100604.00;;;25.30
69435;BMP180;56625;54.322;18.582;2022-08-27T07:12:01;100600.40;;;25.40
69435;BMP180;56625;54.322;18.582;2022-08-27T07:14:30;100604.00;;;25.46
69435;BMP180;56625;54.322;18.582;2022-08-27T07:17:05;100606.80;;;25.50
69435;BMP180;56625;54.322;18.582;2022-08-27T07:19:42;100605.40;;;25.60
69435;BMP180;56625;54.322;18.582;2022-08-27T07:22:39;100606.00;;;25.80
69435;BMP180;56625;54.322;18.582;2022-08-27T07:25:11;100602.40;;;25.90
69435;BMP180;56625;54.322;18.582;2022-08-27T07:27:41;100603.60;;;26.00
69435;BMP180;56625;54.322;18.582;2022-08-27T07:30:11;100599.40;;;26.00
69435;BMP180;56625;54.322;18.582;2022-08-27T07:32:44;100601.40;;;26.10
69435;BMP180;56625;54.322;18.582;2022-08-27T07:35:13;100601.80;;;26.10
69435;BMP180;56625;54.322;18.582;2022-08-27T07:37:41;100601.00;;;26.30
69435;BMP180;56625;54.322;18.582;2022-08-27T07:40:14;100600.20;;;26.50
69435;BMP180;56625;54.322;18.582;2022-08-27T07:43:27;100602.00;;;26.60
69435;BMP180;56625;54.322;18.582;2022-08-27T07:46:23;100599.40;;;26.80
69435;BMP180;56625;54.322;18.582;2022-08-27T07:48:52;100598.20;;;27.00
69435;BMP180;56625;54.322;18.582;2022-08-27T07:51:27;100598.80;;;27.20
69435;BMP180;56625;54.322;18.582;2022-08-27T07:53:56;100594.40;;;27.20
69435;BMP180;56625;54.322;18.582;2022-08-27T07:56:25;100597.00;;;27.40
69435;BMP180;56625;54.322;18.582;2022-08-27T07:58:56;100596.60;;;27.50
69435;BMP180;56625;54.322;18.582;2022-08-27T08:01:24;100592.40;;;27.70
69435;BMP180;56625;54.322;18.582;2022-08-27T08:03:52;100595.20;;;27.70
69435;BMP180;56625;54.322;18.582;2022-08-27T08:06:22;100594.40;;;27.84
69435;BMP180;56625;54.322;18.582;2022-08-27T08:08:50;100593.00;;;28.00
69435;BMP180;56625;54.322;18.582;2022-08-27T08:11:19;100588.80;;;28.10
69435;BMP180;56625;54.322;18.582;2022-08-27T08:13:48;100587.20;;;28.30
69435;BMP180;56625;54.322;18.582;2022-08-27T08:16:16;100586.20;;;28.30
69435;BMP180;56625;54.322;18.582;2022-08-27T08:18:45;100591.40;;;28.30
69435;BMP180;56625;54.322;18.582;2022-08-27T08:21:14;100589.00;;;28.40
69435;BMP180;56625;54.322;18.582;2022-08-27T08:23:42;100586.40;;;28.50
69435;BMP180;56625;54.322;18.582;2022-08-27T08:26:11;100589.00;;;28.60
69435;BMP180;56625;54.322;18.582;2022-08-27T08:28:40;100591.00;;;28.70
69435;BMP180;56625;54.322;18.582;2022-08-27T08:31:09;100591.60;;;28.84
69435;BMP180;56625;54.322;18.582;2022-08-27T08:33:42;100588.20;;;29.00
69435;BMP180;56625;54.322;18.582;2022-08-27T08:36:13;100590.80;;;29.10
69435;BMP180;56625;54.322;18.582;2022-08-27T08:38:46;100592.00;;;29.12
69435;BMP180;56625;54.322;18.582;2022-08-27T08:41:38;100593.00;;;29.20
69435;BMP180;56625;54.322;18.582;2022-08-27T08:44:43;100595.00;;;29.30
69435;BMP180;56625;54.322;18.582;2022-08-27T08:47:24;100592.40;;;29.40
69435;BMP180;56625;54.322;18.582;2022-08-27T08:50:11;100602.60;;;29.60
69435;BMP180;56625;54.322;18.582;2022-08-27T08:56:51;100597.40;;;29.80
69435;BMP180;56625;54.322;18.582;2022-08-27T08:59:38;100594.80;;;30.00
69435;BMP180;56625;54.322;18.582;2022-08-27T09:02:11;100593.00;;;30.10
69435;BMP180;56625;54.322;18.582;2022-08-27T09:04:41;100593.20;;;30.10
69435;BMP180;56625;54.322;18.582;2022-08-27T09:07:35;100593.80;;;30.20
69435;BMP180;56625;54.322;18.582;2022-08-27T09:13:30;100593.40;;;30.34
69435;BMP180;56625;54.322;18.582;2022-08-27T09:16:02;100594.20;;;30.30
69435;BMP180;56625;54.322;18.582;2022-08-27T09:18:38;100601.80;;;30.22
69435;BMP180;56625;54.322;18.582;2022-08-27T09:21:35;100593.40;;;30.20
69435;BMP180;56625;54.322;18.582;2022-08-27T09:26:52;100601.00;;;30.30
69435;BMP180;56625;54.322;18.582;2022-08-27T09:29:27;100596.20;;;30.40
69435;BMP180;56625;54.322;18.582;2022-08-27T09:32:07;100599.20;;;30.50
69435;BMP180;56625;54.322;18.582;2022-08-27T09:34:39;100599.40;;;30.68
69435;BMP180;56625;54.322;18.582;2022-08-27T09:37:17;100596.80;;;30.80
69435;BMP180;56625;54.322;18.582;2022-08-27T09:42:46;100599.00;;;31.00
69435;BMP180;56625;54.322;18.582;2022-08-27T09:45:25;100593.80;;;31.10
69435;BMP180;56625;54.322;18.582;2022-08-27T09:48:10;100596.40;;;31.00
69435;BMP180;56625;54.322;18.582;2022-08-27T09:50:51;100603.00;;;31.10
69435;BMP180;56625;54.322;18.582;2022-08-27T09:53:42;100602.80;;;31.10
69435;BMP180;56625;54.322;18.582;2022-08-27T09:59:22;100600.80;;;31.34
69435;BMP180;56625;54.322;18.582;2022-08-27T10:02:14;100597.60;;;31.48
69435;BMP180;56625;54.322;18.582;2022-08-27T10:04:50;100587.00;;;31.40
69435;BMP180;56625;54.322;18.582;2022-08-27T10:07:55;100588.60;;;31.36
69435;BMP180;56625;54.322;18.582;2022-08-27T10:10:55;100588.40;;;31.50
69435;BMP180;56625;54.322;18.582;2022-08-27T10:13:46;100585.20;;;31.40
69435;BMP180;56625;54.322;18.582;2022-08-27T10:23:37;100585.60;;;31.84
69435;BMP180;56625;54.322;18.582;2022-08-27T10:26:33;100581.60;;;31.90
69435;BMP180;56625;54.322;18.582;2022-08-27T10:29:35;100577.00;;;31.90
69435;BMP180;56625;54.322;18.582;2022-08-27T10:32:43;100573.60;;;31.90
69435;BMP180;56625;54.322;18.582;2022-08-27T10:35:28;100570.60;;;32.00
69435;BMP180;56625;54.322;18.582;2022-08-27T10:38:36;100570.20;;;31.98
69435;BMP180;56625;54.322;18.582;2022-08-27T10:41:50;100570.20;;;32.06
69435;BMP180;56625;54.322;18.582;2022-08-27T10:44:53;100567.20;;;32.10
69435;BMP180;56625;54.322;18.582;2022-08-27T10:47:52;100569.60;;;32.10
69435;BMP180;56625;54.322;18.582;2022-08-27T10:50:49;100569.40;;;32.20
69435;BMP180;56625;54.322;18.582;2022-08-27T10:53:42;100571.40;;;32.20
69435;BMP180;56625;54.322;18.582;2022-08-27T10:56:29;100572.60;;;32.28
69435;BMP180;56625;54.322;18.582;2022-08-27T11:02:49;100571.40;;;32.52
69435;BMP180;56625;54.322;18.582;2022-08-27T11:05:46;100571.80;;;32.60
69435;BMP180;56625;54.322;18.582;2022-08-27T11:11:53;100574.00;;;32.80
69435;BMP180;56625;54.322;18.582;2022-08-27T11:14:54;100570.40;;;32.80
69435;BMP180;56625;54.322;18.582;2022-08-27T11:17:49;100568.00;;;32.80
69435;BMP180;56625;54.322;18.582;2022-08-27T11:20:46;100573.40;;;32.80
69435;BMP180;56625;54.322;18.582;2022-08-27T11:26:08;100571.00;;;32.80
69435;BMP180;56625;54.322;18.582;2022-08-27T11:28:46;100581.60;;;32.80
69435;BMP180;56625;54.322;18.582;2022-08-27T11:31:43;100584.40;;;32.80
69435;BMP180;56625;54.322;18.582;2022-08-27T11:34:24;100584.20;;;32.92
69435;BMP180;56625;54.322;18.582;2022-08-27T11:45:31;100584.20;;;32.90
69435;BMP180;56625;54.322;18.582;2022-08-27T11:48:53;100585.60;;;32.60
69435;BMP180;56625;54.322;18.582;2022-08-27T11:51:40;100584.20;;;32.50
69435;BMP180;56625;54.322;18.582;2022-08-27T11:54:43;100581.00;;;32.40
69435;BMP180;56625;54.322;18.582;2022-08-27T11:57:34;100585.20;;;32.24
69435;BMP180;56625;54.322;18.582;2022-08-27T12:00:29;100589.20;;;32.20
69435;BMP180;56625;54.322;18.582;2022-08-27T12:03:06;100576.20;;;32.20
69435;BMP180;56625;54.322;18.582;2022-08-27T12:11:24;100577.60;;;32.10
69435;BMP180;56625;54.322;18.582;2022-08-27T12:14:09;100578.80;;;32.00
69435;BMP180;56625;54.322;18.582;2022-08-27T12:26:39;100570.00;;;31.72
69435;BMP180;56625;54.322;18.582;2022-08-27T12:29:38;100573.40;;;31.54
69435;BMP180;56625;54.322;18.582;2022-08-27T12:38:31;100561.60;;;31.30
69435;BMP180;56625;54.322;18.582;2022-08-27T12:41:05;100563.20;;;31.30
69435;BMP180;56625;54.322;18.582;2022-08-27T12:43:38;100560.80;;;31.30
69435;BMP180;56625;54.322;18.582;2022-08-27T12:46:17;100564.80;;;31.20
69435;BMP180;56625;54.322;18.582;2022-08-27T12:48:54;100560.80;;;31.20
69435;BMP180;56625;54.322;18.582;2022-08-27T12:51:33;100562.00;;;31.20
69435;BMP180;56625;54.322;18.582;2022-08-27T12:57:34;100559.80;;;31.00
69435;BMP180;56625;54.322;18.582;2022-08-27T13:00:18;100553.40;;;30.80
69435;BMP180;56625;54.322;18.582;2022-08-27T13:03:14;100555.00;;;30.76
69435;BMP180;56625;54.322;18.582;2022-08-27T13:05:56;100555.60;;;30.40
69435;BMP180;56625;54.322;18.582;2022-08-27T13:08:35;100553.20;;;30.40
69435;BMP180;56625;54.322;18.582;2022-08-27T13:11:21;100550.20;;;30.40
69435;BMP180;56625;54.322;18.582;2022-08-27T13:14:07;100552.80;;;30.42
69435;BMP180;56625;54.322;18.582;2022-08-27T13:16:44;100543.20;;;30.50
69435;BMP180;56625;54.322;18.582;2022-08-27T13:19:31;100551.20;;;30.50
69435;BMP180;56625;54.322;18.582;2022-08-27T13:22:04;100546.40;;;30.50
69435;BMP180;56625;54.322;18.582;2022-08-27T13:24:49;100546.20;;;30.40
69435;BMP180;56625;54.322;18.582;2022-08-27T13:27:33;100547.20;;;30.38
69435;BMP180;56625;54.322;18.582;2022-08-27T13:30:09;100544.80;;;30.38
69435;BMP180;56625;54.322;18.582;2022-08-27T13:33:05;100547.00;;;30.30
69435;BMP180;56625;54.322;18.582;2022-08-27T13:35:34;100548.80;;;30.20
69435;BMP180;56625;54.322;18.582;2022-08-27T13:38:03;100545.60;;;30.10
69435;BMP180;56625;54.322;18.582;2022-08-27T13:40:37;100546.80;;;30.10
69435;BMP180;56625;54.322;18.582;2022-08-27T13:43:18;100541.80;;;30.00
69435;BMP180;56625;54.322;18.582;2022-08-27T13:45:49;100541.40;;;29.90
69435;BMP180;56625;54.322;18.582;2022-08-27T13:48:20;100544.00;;;29.74
69435;BMP180;56625;54.322;18.582;2022-08-27T13:50:54;100541.00;;;29.60
69435;BMP180;56625;54.322;18.582;2022-08-27T13:53:34;100546.00;;;29.60
69435;BMP180;56625;54.322;18.582;2022-08-27T13:56:34;100541.40;;;29.70
69435;BMP180;56625;54.322;18.582;2022-08-27T13:59:09;100537.00;;;29.70
69435;BMP180;56625;54.322;18.582;2022-08-27T14:02:02;100535.60;;;29.70
69435;BMP180;56625;54.322;18.582;2022-08-27T14:05:03;100532.40;;;29.70
69435;BMP180;56625;54.322;18.582;2022-08-27T14:07:41;100538.00;;;29.70
69435;BMP180;56625;54.322;18.582;2022-08-27T14:12:55;100532.20;;;29.60
69435;BMP180;56625;54.322;18.582;2022-08-27T14:15:39;100530.60;;;29.60
69435;BMP180;56625;54.322;18.582;2022-08-27T14:21:08;100524.80;;;29.60
69435;BMP180;56625;54.322;18.582;2022-08-27T14:23:36;100521.40;;;29.60
69435;BMP180;56625;54.322;18.582;2022-08-27T14:26:04;100524.80;;;29.70
69435;BMP180;56625;54.322;18.582;2022-08-27T14:28:32;100523.60;;;29.80
69435;BMP180;56625;54.322;18.582;2022-08-27T14:31:00;100519.80;;;29.80
69435;BMP180;56625;54.322;18.582;2022-08-27T14:33:28;100521.20;;;29.80
69435;BMP180;56625;54.322;18.582;2022-08-27T14:35:56;100519.20;;;29.70
69435;BMP180;56625;54.322;18.582;2022-08-27T14:38:24;100517.20;;;29.70
69435;BMP180;56625;54.322;18.582;2022-08-27T14:40:57;100518.80;;;29.70
69435;BMP180;56625;54.322;18.582;2022-08-27T14:43:25;100514.60;;;29.72
69435;BMP180;56625;54.322;18.582;2022-08-27T14:45:53;100516.60;;;29.80
69435;BMP180;56625;54.322;18.582;2022-08-27T14:48:27;100518.80;;;29.80
69435;BMP180;56625;54.322;18.582;2022-08-27T14:51:05;100516.80;;;29.88
69435;BMP180;56625;54.322;18.582;2022-08-27T14:53:36;100517.20;;;29.80
69435;BMP180;56625;54.322;18.582;2022-08-27T14:56:05;100515.00;;;29.80
69435;BMP180;56625;54.322;18.582;2022-08-27T14:58:33;100512.60;;;29.80
69435;BMP180;56625;54.322;18.582;2022-08-27T15:01:04;100507.20;;;29.82
69435;BMP180;56625;54.322;18.582;2022-08-27T15:03:37;100516.80;;;29.88
69435;BMP180;56625;54.322;18.582;2022-08-27T15:06:09;100515.60;;;29.80
69435;BMP180;56625;54.322;18.582;2022-08-27T15:08:37;100514.60;;;29.70
69435;BMP180;56625;54.322;18.582;2022-08-27T15:11:17;100517.00;;;29.70
69435;BMP180;56625;54.322;18.582;2022-08-27T15:13:45;100512.00;;;29.70
69435;BMP180;56625;54.322;18.582;2022-08-27T15:16:36;100510.60;;;29.70
69435;BMP180;56625;54.322;18.582;2022-08-27T15:19:10;100509.40;;;29.70
69435;BMP180;56625;54.322;18.582;2022-08-27T15:21:40;100508.80;;;29.70
69435;BMP180;56625;54.322;18.582;2022-08-27T15:24:21;100509.80;;;29.70
69435;BMP180;56625;54.322;18.582;2022-08-27T15:26:53;100510.40;;;29.70
69435;BMP180;56625;54.322;18.582;2022-08-27T15:29:25;100508.60;;;29.62
69435;BMP180;56625;54.322;18.582;2022-08-27T15:31:53;100506.80;;;29.50
69435;BMP180;56625;54.322;18.582;2022-08-27T15:34:21;100502.80;;;29.50
69435;BMP180;56625;54.322;18.582;2022-08-27T15:36:49;100510.00;;;29.50
69435;BMP180;56625;54.322;18.582;2022-08-27T15:39:17;100505.20;;;29.50
69435;BMP180;56625;54.322;18.582;2022-08-27T15:41:45;100502.00;;;29.40
69435;BMP180;56625;54.322;18.582;2022-08-27T15:44:32;100506.40;;;29.30
69435;BMP180;56625;54.322;18.582;2022-08-27T15:47:00;100508.60;;;29.30
69435;BMP180;56625;54.322;18.582;2022-08-27T15:49:28;100502.80;;;29.30